Terminal Aerodrome Forecast
Issued by NWS Tampa Bay Area, FL

Home | Current Version | Previous Version | Text Only | Print | Product List | Glossary On
Versions: 1 2 3 4 5 6 7 8 9 10 11 12 13 14 15 16 17 18 19 20 21 22 23 24
676
FTUS42 KTBW 011722
TAFTPA
TAF
KTPA 011722Z 0118/0218 18009KT P6SM SCT040 SCT250
     FM012000 25009KT P6SM SCT050 SCT250
     FM020100 30007KT P6SM FEW050 SCT250
     FM020300 11006KT P6SM FEW035 SCT150 SCT250
     FM021400 17008KT P6SM SCT035 SCT150 SCT250=

USA.gov is the U.S. government's official web portal to all federal, state and local government web resources and services.